Time;durP1;ratioP1;P1;durP2;ratioP2;P2;SDS_P1;SDS_P2;PMS_P1;PMS_P2;Temp;Humidity;BMP_temperature;BMP_pressure;BME280_temperature;BME280_humidity;BME280_pressure;Samples;Min_cycle;Max_cycle;Signal;HPM_P1;HPM_P2
2024/02/18 00:00:39;;;;;;;;;;;;;;;-128.00;-1.00;-1.00;106884;1253;1002008;-70
2024/02/18 00:03:07;;;;;;;;;;;;;;;-128.00;-1.00;-1.00;106604;1253;1002400;-69
2024/02/18 00:05:35;;;;;;;;;;;;;;;-128.00;-1.00;-1.00;106954;1253;1002272;-69
2024/02/18 00:08:02;;;;;;;;;;;;;;;-128.00;-1.00;-1.00;106918;1254;1002003;-69
2024/02/18 00:10:30;;;;;;;;;;;;;;;-128.00;-1.00;-1.00;106942;1254;1002793;-69
2024/02/18 00:12:57;;;;;;;;;;;;;;;-128.00;-1.00;-1.00;106879;1254;1002303;-69
2024/02/18 00:15:25;;;;;;;;;;;;;;;-128.00;-1.00;-1.00;106890;1253;1002485;-70
2024/02/18 00:17:52;;;;;;;;;;;;;;;-128.00;-1.00;-1.00;106898;1253;1002668;-69
2024/02/18 00:20:20;;;;;;;;;;;;;;;-128.00;-1.00;-1.00;106485;1254;1002648;-69
2024/02/18 00:22:48;;;;;;;;;;;;;;;-128.00;-1.00;-1.00;106702;1254;1002365;-69
2024/02/18 00:25:16;;;;;;;;;;;;;;;-128.00;-1.00;-1.00;106757;1254;1002240;-70
2024/02/18 00:27:43;;;;;;;;;;;;;;;-128.00;-1.00;-1.00;106703;1254;1002217;-70
2024/02/18 00:30:11;;;;;;;;;;;;;;;-128.00;-1.00;-1.00;106614;1254;1002187;-70
2024/02/18 00:32:38;;;;;;;;;;;;;;;-128.00;-1.00;-1.00;106710;1254;1002466;-70
2024/02/18 00:35:06;;;;;;;;;;;;;;;-128.00;-1.00;-1.00;106723;1254;1002351;-70
2024/02/18 00:37:34;;;;;;;;;;;;;;;-128.00;-1.00;-1.00;106745;1254;1002366;-70
2024/02/18 00:40:03;;;;;;;;;;;;;;;-128.00;-1.00;-1.00;106676;1254;1002443;-70
2024/02/18 00:42:30;;;;;;;;;;;;;;;-128.00;-1.00;-1.00;106665;1260;1013631;-71
2024/02/18 00:44:58;;;;;;;;;;;;;;;-128.00;-1.00;-1.00;106692;1254;1002700;-70
2024/02/18 00:47:26;;;;;;;;;;;;;;;-128.00;-1.00;-1.00;106723;1254;1002141;-72
2024/02/18 00:49:53;;;;;;;;;;;;;;;-128.00;-1.00;-1.00;106716;1254;1002335;-71
2024/02/18 00:52:21;;;;;;;;;;;;;;;-128.00;-1.00;-1.00;106905;1253;1002500;-70
2024/02/18 00:54:49;;;;;;;;;;;;;;;-128.00;-1.00;-1.00;106865;1254;1013834;-70
2024/02/18 00:57:16;;;;;;;;;;;;;;;-128.00;-1.00;-1.00;106676;1253;1002243;-70
2024/02/18 00:59:44;;;;;;;;;;;;;;;-128.00;-1.00;-1.00;106709;1254;1002320;-70
2024/02/18 01:02:11;;;;;;;;;;;;;;;-128.00;-1.00;-1.00;107015;1252;1002339;-71
2024/02/18 01:04:39;;;;;;;;;;;;;;;-128.00;-1.00;-1.00;106939;1253;1002962;-71
2024/02/18 01:07:07;;;;;;;;;;;;;;;-128.00;-1.00;-1.00;106887;1254;1002860;-71
2024/02/18 01:09:35;;;;;;;;;;;;;;;-128.00;-1.00;-1.00;106932;1253;1012907;-71
2024/02/18 01:12:03;;;;;;;;;;;;;;;-128.00;-1.00;-1.00;106913;1254;1001738;-71
2024/02/18 01:14:31;;;;;;;;;;;;;;;-128.00;-1.00;-1.00;106923;1252;1002552;-71
2024/02/18 01:16:58;;;;;;;;;;;;;;;-128.00;-1.00;-1.00;106465;1254;1002269;-71
2024/02/18 01:19:26;;;;;;;;;;;;;;;-128.00;-1.00;-1.00;106710;1254;1002341;-71
2024/02/18 01:21:53;;;;;;;;;;;;;;;-128.00;-1.00;-1.00;106725;1254;1002290;-71
2024/02/18 01:24:21;;;;;;;;;;;;;;;-128.00;-1.00;-1.00;106734;1254;1002120;-71
2024/02/18 01:26:48;;;;;;;;;;;;;;;-128.00;-1.00;-1.00;106774;1254;1002303;-68
2024/02/18 01:29:16;;;;;;;;;;;;;;;-128.00;-1.00;-1.00;106722;1253;1002395;-69
2024/02/18 01:31:43;;;;;;;;;;;;;;;-128.00;-1.00;-1.00;106672;1255;1002583;-69
2024/02/18 01:34:11;;;;;;;;;;;;;;;-128.00;-1.00;-1.00;106712;1254;1003063;-69
2024/02/18 01:36:38;;;;;;;;;;;;;;;-128.00;-1.00;-1.00;106766;1254;1002759;-69
2024/02/18 01:39:07;;;;;;;;;;;;;;;-128.00;-1.00;-1.00;106582;1256;1002563;-69
2024/02/18 01:41:34;;;;;;;;;;;;;;;-128.00;-1.00;-1.00;106535;1256;1012787;-69
2024/02/18 01:44:03;;;;;;;;;;;;;;;-128.00;-1.00;-1.00;106585;1256;1002879;-68
2024/02/18 01:46:31;;;;;;;;;;;;;;;-128.00;-1.00;-1.00;106328;1256;1012938;-68
2024/02/18 01:48:58;;;;;;;;;;;;;;;-128.00;-1.00;-1.00;106446;1257;1002503;-69
2024/02/18 01:51:26;;;;;;;;;;;;;;;-128.00;-1.00;-1.00;106486;1256;1002183;-68
2024/02/18 01:53:54;;;;;;;;;;;;;;;-128.00;-1.00;-1.00;106282;1257;1002391;-69
2024/02/18 01:56:21;;;;;;;;;;;;;;;-128.00;-1.00;-1.00;106478;1257;1002410;-68
2024/02/18 01:58:49;;;;;;;;;;;;;;;-128.00;-1.00;-1.00;106527;1256;1002362;-69
2024/02/18 02:01:16;;;;;;;;;;;;;;;-128.00;-1.00;-1.00;106628;1256;1002688;-69
2024/02/18 02:03:45;;;;;;;;;;;;;;;-128.00;-1.00;-1.00;106427;1256;1002097;-69
2024/02/18 02:06:13;;;;;;;;;;;;;;;-128.00;-1.00;-1.00;106563;1257;1013420;-69
2024/02/18 02:08:41;;;;;;;;;;;;;;;-128.00;-1.00;-1.00;106575;1256;1012224;-68
2024/02/18 02:11:08;;;;;;;;;;;;;;;-128.00;-1.00;-1.00;106545;1256;1002842;-68
2024/02/18 02:13:36;;;;;;;;;;;;;;;-128.00;-1.00;-1.00;106594;1256;1002161;-68
2024/02/18 02:16:04;;;;;;;;;;;;;;;-128.00;-1.00;-1.00;106606;1254;1002311;-68
2024/02/18 02:18:32;;;;;;;;;;;;;;;-128.00;-1.00;-1.00;106791;1254;1013626;-68
2024/02/18 02:20:59;;;;;;;;;;;;;;;-128.00;-1.00;-1.00;106710;1254;1003025;-68
2024/02/18 02:23:27;;;;;;;;;;;;;;;-128.00;-1.00;-1.00;106795;1254;1001891;-68
2024/02/18 02:25:54;;;;;;;;;;;;;;;-128.00;-1.00;-1.00;106720;1254;1003165;-68
2024/02/18 02:28:22;;;;;;;;;;;;;;;-128.00;-1.00;-1.00;106824;1253;1002427;-69
2024/02/18 02:30:50;;;;;;;;;;;;;;;-128.00;-1.00;-1.00;106829;1253;1002966;-69
2024/02/18 02:33:17;;;;;;;;;;;;;;;-128.00;-1.00;-1.00;106715;1254;1002420;-69
2024/02/18 02:35:46;;;;;;;;;;;;;;;-128.00;-1.00;-1.00;106632;1256;1002533;-68
2024/02/18 02:38:13;;;;;;;;;;;;;;;-128.00;-1.00;-1.00;106457;1257;1002822;-68
2024/02/18 02:40:41;;;;;;;;;;;;;;;-128.00;-1.00;-1.00;106463;1257;1002405;-69
2024/02/18 02:43:10;;;;;;;;;;;;;;;-128.00;-1.00;-1.00;106365;1256;1003118;-69
2024/02/18 02:45:38;;;;;;;;;;;;;;;-128.00;-1.00;-1.00;106427;1257;1013211;-69
2024/02/18 02:48:06;;;;;;;;;;;;;;;-128.00;-1.00;-1.00;106427;1257;1002066;-69
2024/02/18 02:50:33;;;;;;;;;;;;;;;-128.00;-1.00;-1.00;106454;1257;1002465;-69
2024/02/18 02:53:05;;;;;;;;;;;;;;;-128.00;-1.00;-1.00;106304;1257;1011272;-69
2024/02/18 02:55:33;;;;;;;;;;;;;;;-128.00;-1.00;-1.00;106315;1257;1002612;-69
2024/02/18 02:58:00;;;;;;;;;;;;;;;-128.00;-1.00;-1.00;106327;1257;1003018;-69
2024/02/18 03:00:28;;;;;;;;;;;;;;;-128.00;-1.00;-1.00;106466;1256;1003021;-69
2024/02/18 03:02:55;;;;;;;;;;;;;;;-128.00;-1.00;-1.00;106545;1256;1002576;-69
2024/02/18 03:05:23;;;;;;;;;;;;;;;-128.00;-1.00;-1.00;106512;1256;1002753;-69
2024/02/18 03:07:51;;;;;;;;;;;;;;;-128.00;-1.00;-1.00;106632;1256;1002712;-69
2024/02/18 03:10:18;;;;;;;;;;;;;;;-128.00;-1.00;-1.00;106698;1253;1002489;-69
2024/02/18 03:12:46;;;;;;;;;;;;;;;-128.00;-1.00;-1.00;106842;1252;1002162;-69
2024/02/18 03:15:13;;;;;;;;;;;;;;;-128.00;-1.00;-1.00;106761;1253;1002398;-69
2024/02/18 03:17:41;;;;;;;;;;;;;;;-128.00;-1.00;-1.00;106808;1254;1002248;-68
2024/02/18 03:20:11;;;;;;;;;;;;;;;-128.00;-1.00;-1.00;106700;1254;1001779;-68
2024/02/18 03:22:39;;;;;;;;;;;;;;;-128.00;-1.00;-1.00;106451;1254;1012518;-69
2024/02/18 03:25:07;;;;;;;;;;;;;;;-128.00;-1.00;-1.00;106783;1254;1002363;-69
2024/02/18 03:27:34;;;;;;;;;;;;;;;-128.00;-1.00;-1.00;106661;1254;1002577;-68
2024/02/18 03:30:02;;;;;;;;;;;;;;;-128.00;-1.00;-1.00;106642;1254;1002029;-68
2024/02/18 03:32:30;;;;;;;;;;;;;;;-128.00;-1.00;-1.00;106789;1254;1003022;-68
2024/02/18 03:34:57;;;;;;;;;;;;;;;-128.00;-1.00;-1.00;106647;1254;1002335;-68
2024/02/18 03:37:25;;;;;;;;;;;;;;;-128.00;-1.00;-1.00;106630;1254;1002241;-69
2024/02/18 03:39:53;;;;;;;;;;;;;;;-128.00;-1.00;-1.00;106748;1254;1003057;-69
2024/02/18 03:42:20;;;;;;;;;;;;;;;-128.00;-1.00;-1.00;106681;1254;1002309;-69
2024/02/18 03:44:48;;;;;;;;;;;;;;;-128.00;-1.00;-1.00;106746;1254;1002264;-69
2024/02/18 03:47:15;;;;;;;;;;;;;;;-128.00;-1.00;-1.00;106601;1254;1002152;-69
2024/02/18 03:49:43;;;;;;;;;;;;;;;-128.00;-1.00;-1.00;106534;1254;1003016;-69
2024/02/18 03:52:11;;;;;;;;;;;;;;;-128.00;-1.00;-1.00;106496;1254;1002587;-69
2024/02/18 03:54:38;;;;;;;;;;;;;;;-128.00;-1.00;-1.00;106723;1253;1002191;-69
2024/02/18 03:57:06;;;;;;;;;;;;;;;-128.00;-1.00;-1.00;106554;1253;1002323;-69
2024/02/18 03:59:33;;;;;;;;;;;;;;;-128.00;-1.00;-1.00;106746;1253;1002342;-69
2024/02/18 04:02:01;;;;;;;;;;;;;;;-128.00;-1.00;-1.00;106753;1254;1002004;-69
2024/02/18 04:04:28;;;;;;;;;;;;;;;-128.00;-1.00;-1.00;106543;1253;1002339;-69
2024/02/18 04:06:56;;;;;;;;;;;;;;;-128.00;-1.00;-1.00;106839;1253;1002980;-69
2024/02/18 04:09:23;;;;;;;;;;;;;;;-128.00;-1.00;-1.00;106732;1253;1002551;-69
2024/02/18 04:11:53;;;;;;;;;;;;;;;-128.00;-1.00;-1.00;106768;1254;1002458;-69
2024/02/18 04:14:21;;;;;;;;;;;;;;;-128.00;-1.00;-1.00;106751;1253;1012942;-69
2024/02/18 04:16:49;;;;;;;;;;;;;;;-128.00;-1.00;-1.00;106777;1253;1002389;-69
2024/02/18 04:19:16;;;;;;;;;;;;;;;-128.00;-1.00;-1.00;106858;1254;1002863;-69
2024/02/18 04:21:44;;;;;;;;;;;;;;;-128.00;-1.00;-1.00;106907;1252;1003935;-69
2024/02/18 04:24:11;;;;;;;;;;;;;;;-128.00;-1.00;-1.00;106826;1252;1002342;-69
2024/02/18 04:26:39;;;;;;;;;;;;;;;-128.00;-1.00;-1.00;106765;1252;1002209;-69
2024/02/18 04:29:06;;;;;;;;;;;;;;;-128.00;-1.00;-1.00;106858;1253;1002268;-70
2024/02/18 04:31:34;;;;;;;;;;;;;;;-128.00;-1.00;-1.00;106889;1252;1002272;-69
2024/02/18 04:34:01;;;;;;;;;;;;;;;-128.00;-1.00;-1.00;106898;1253;1002622;-69
2024/02/18 04:36:29;;;;;;;;;;;;;;;-128.00;-1.00;-1.00;106844;1253;1002668;-69
2024/02/18 04:38:56;;;;;;;;;;;;;;;-128.00;-1.00;-1.00;106821;1253;1002238;-69
2024/02/18 04:41:24;;;;;;;;;;;;;;;-128.00;-1.00;-1.00;106885;1253;1002762;-69
2024/02/18 04:43:51;;;;;;;;;;;;;;;-128.00;-1.00;-1.00;106860;1253;1002416;-69
2024/02/18 04:46:19;;;;;;;;;;;;;;;-128.00;-1.00;-1.00;106907;1253;1002012;-68
2024/02/18 04:48:47;;;;;;;;;;;;;;;-128.00;-1.00;-1.00;106828;1253;1002728;-69
2024/02/18 04:51:14;;;;;;;;;;;;;;;-128.00;-1.00;-1.00;106844;1253;1002802;-68
2024/02/18 04:53:42;;;;;;;;;;;;;;;-128.00;-1.00;-1.00;106921;1252;1002400;-68
2024/02/18 04:56:09;;;;;;;;;;;;;;;-128.00;-1.00;-1.00;106821;1252;1002267;-68
2024/02/18 04:58:37;;;;;;;;;;;;;;;-128.00;-1.00;-1.00;106832;1253;1002797;-68
2024/02/18 05:01:04;;;;;;;;;;;;;;;-128.00;-1.00;-1.00;106693;1253;1002348;-68
2024/02/18 05:03:32;;;;;;;;;;;;;;;-128.00;-1.00;-1.00;106863;1253;1002569;-69
2024/02/18 05:05:59;;;;;;;;;;;;;;;-128.00;-1.00;-1.00;106680;1253;1002564;-70
2024/02/18 05:08:27;;;;;;;;;;;;;;;-128.00;-1.00;-1.00;106512;1253;1002855;-69
2024/02/18 05:10:54;;;;;;;;;;;;;;;-128.00;-1.00;-1.00;106914;1253;1002531;-70
2024/02/18 05:13:23;;;;;;;;;;;;;;;-128.00;-1.00;-1.00;106797;1252;1002636;-70
2024/02/18 05:15:51;;;;;;;;;;;;;;;-128.00;-1.00;-1.00;106546;1253;1013476;-70
2024/02/18 05:18:19;;;;;;;;;;;;;;;-128.00;-1.00;-1.00;106863;1253;1009418;-69
2024/02/18 05:20:48;;;;;;;;;;;;;;;-128.00;-1.00;-1.00;106718;1253;1010563;-69
2024/02/18 05:23:15;;;;;;;;;;;;;;;-128.00;-1.00;-1.00;106654;1253;1002350;-70
2024/02/18 05:25:44;;;;;;;;;;;;;;;-128.00;-1.00;-1.00;106778;1253;1002545;-69
2024/02/18 05:28:12;;;;;;;;;;;;;;;-128.00;-1.00;-1.00;106555;1253;1012817;-69
2024/02/18 05:30:39;;;;;;;;;;;;;;;-128.00;-1.00;-1.00;106834;1253;1002418;-69
2024/02/18 05:33:07;;;;;;;;;;;;;;;-128.00;-1.00;-1.00;106901;1253;1002523;-70
2024/02/18 05:35:34;;;;;;;;;;;;;;;-128.00;-1.00;-1.00;106870;1253;1002134;-70
2024/02/18 05:38:02;;;;;;;;;;;;;;;-128.00;-1.00;-1.00;106859;1252;1002198;-70
2024/02/18 05:40:30;;;;;;;;;;;;;;;-128.00;-1.00;-1.00;106479;1254;1002712;-69
2024/02/18 05:42:57;;;;;;;;;;;;;;;-128.00;-1.00;-1.00;106797;1253;1002829;-69
2024/02/18 05:45:30;;;;;;;;;;;;;;;-128.00;-1.00;-1.00;106880;1253;1002739;-69
2024/02/18 05:47:58;;;;;;;;;;;;;;;-128.00;-1.00;-1.00;106859;1253;1012531;-70
2024/02/18 05:50:25;;;;;;;;;;;;;;;-128.00;-1.00;-1.00;106745;1253;1002173;-70
2024/02/18 05:52:53;;;;;;;;;;;;;;;-128.00;-1.00;-1.00;106808;1253;1002491;-70
2024/02/18 05:55:20;;;;;;;;;;;;;;;-128.00;-1.00;-1.00;106831;1252;1002256;-70
2024/02/18 05:57:48;;;;;;;;;;;;;;;-128.00;-1.00;-1.00;106859;1252;1002131;-70
2024/02/18 06:00:17;;;;;;;;;;;;;;;-128.00;-1.00;-1.00;106858;1254;1002002;-69
2024/02/18 06:02:45;;;;;;;;;;;;;;;-128.00;-1.00;-1.00;106853;1253;1012508;-69
2024/02/18 06:05:17;;;;;;;;;;;;;;;-128.00;-1.00;-1.00;106899;1253;1002374;-69
2024/02/18 06:07:45;;;;;;;;;;;;;;;-128.00;-1.00;-1.00;106829;1253;1011243;-69
2024/02/18 06:10:13;;;;;;;;;;;;;;;-128.00;-1.00;-1.00;106933;1252;1002556;-69
2024/02/18 06:12:41;;;;;;;;;;;;;;;-128.00;-1.00;-1.00;106875;1252;1002518;-69
2024/02/18 06:15:09;;;;;;;;;;;;;;;-128.00;-1.00;-1.00;106839;1253;1002571;-70
2024/02/18 06:17:36;;;;;;;;;;;;;;;-128.00;-1.00;-1.00;106945;1251;1002662;-69
2024/02/18 06:20:04;;;;;;;;;;;;;;;-128.00;-1.00;-1.00;106958;1251;1002169;-70
2024/02/18 06:22:32;;;;;;;;;;;;;;;-128.00;-1.00;-1.00;106555;1251;1002454;-70
2024/02/18 06:24:59;;;;;;;;;;;;;;;-128.00;-1.00;-1.00;106947;1251;1002217;-70
2024/02/18 06:27:27;;;;;;;;;;;;;;;-128.00;-1.00;-1.00;106851;1251;1004580;-70
2024/02/18 06:29:54;;;;;;;;;;;;;;;-128.00;-1.00;-1.00;106760;1254;1002236;-70
2024/02/18 06:32:22;;;;;;;;;;;;;;;-128.00;-1.00;-1.00;106453;1254;1002533;-69
2024/02/18 06:34:49;;;;;;;;;;;;;;;-128.00;-1.00;-1.00;106656;1254;1002440;-69
2024/02/18 06:37:17;;;;;;;;;;;;;;;-128.00;-1.00;-1.00;106682;1254;1002393;-69
2024/02/18 06:39:44;;;;;;;;;;;;;;;-128.00;-1.00;-1.00;106554;1256;1002148;-68
2024/02/18 06:42:12;;;;;;;;;;;;;;;-128.00;-1.00;-1.00;106672;1254;1002249;-69
2024/02/18 06:44:39;;;;;;;;;;;;;;;-128.00;-1.00;-1.00;106623;1254;1002367;-69
2024/02/18 06:47:07;;;;;;;;;;;;;;;-128.00;-1.00;-1.00;106530;1254;1002578;-69
2024/02/18 06:49:34;;;;;;;;;;;;;;;-128.00;-1.00;-1.00;106656;1254;1002329;-69
2024/02/18 06:52:02;;;;;;;;;;;;;;;-128.00;-1.00;-1.00;106648;1254;1002362;-69
2024/02/18 06:54:30;;;;;;;;;;;;;;;-128.00;-1.00;-1.00;106608;1254;1002429;-69
2024/02/18 06:56:57;;;;;;;;;;;;;;;-128.00;-1.00;-1.00;106635;1254;1002519;-69
2024/02/18 06:59:25;;;;;;;;;;;;;;;-128.00;-1.00;-1.00;106412;1254;1002590;-70
2024/02/18 07:01:52;;;;;;;;;;;;;;;-128.00;-1.00;-1.00;106801;1252;1002094;-69
2024/02/18 07:04:20;;;;;;;;;;;;;;;-128.00;-1.00;-1.00;106817;1252;1002952;-69
2024/02/18 07:06:47;;;;;;;;;;;;;;;-128.00;-1.00;-1.00;106784;1252;1002770;-69
2024/02/18 07:09:15;;;;;;;;;;;;;;;-128.00;-1.00;-1.00;106851;1252;1002637;-69
2024/02/18 07:11:42;;;;;;;;;;;;;;;-128.00;-1.00;-1.00;106834;1253;1002261;-69
2024/02/18 07:14:10;;;;;;;;;;;;;;;-128.00;-1.00;-1.00;106818;1253;1002192;-69
2024/02/18 07:16:37;;;;;;;;;;;;;;;-128.00;-1.00;-1.00;106798;1252;1002061;-69
2024/02/18 07:19:07;;;;;;;;;;;;;;;-128.00;-1.00;-1.00;106621;1253;1001931;-69
2024/02/18 07:21:34;;;;;;;;;;;;;;;-128.00;-1.00;-1.00;106566;1253;1010865;-69
2024/02/18 07:24:02;;;;;;;;;;;;;;;-128.00;-1.00;-1.00;106862;1252;1002964;-69
2024/02/18 07:26:30;;;;;;;;;;;;;;;-128.00;-1.00;-1.00;106839;1253;1002369;-69
2024/02/18 07:28:57;;;;;;;;;;;;;;;-128.00;-1.00;-1.00;106822;1252;1002037;-69
2024/02/18 07:31:29;;;;;;;;;;;;;;;-128.00;-1.00;-1.00;106793;1252;1013323;-70
2024/02/18 07:33:57;;;;;;;;;;;;;;;-128.00;-1.00;-1.00;106753;1254;1009735;-69
2024/02/18 07:36:25;;;;;;;;;;;;;;;-128.00;-1.00;-1.00;106749;1252;1012391;-69
2024/02/18 07:38:56;;;;;;;;;;;;;;;-128.00;-1.00;-1.00;106783;1253;1013622;-69
2024/02/18 07:41:25;;;;;;;;;;;;;;;-128.00;-1.00;-1.00;106809;1252;1014005;-70
2024/02/18 07:43:52;;;;;;;;;;;;;;;-128.00;-1.00;-1.00;106779;1252;1013109;-70
2024/02/18 07:46:20;;;;;;;;;;;;;;;-128.00;-1.00;-1.00;106747;1252;1002407;-69
2024/02/18 07:48:47;;;;;;;;;;;;;;;-128.00;-1.00;-1.00;106817;1252;1004227;-70
2024/02/18 07:51:15;;;;;;;;;;;;;;;-128.00;-1.00;-1.00;106854;1252;1002412;-69
2024/02/18 07:53:43;;;;;;;;;;;;;;;-128.00;-1.00;-1.00;106744;1253;1002166;-69
2024/02/18 07:56:10;;;;;;;;;;;;;;;-128.00;-1.00;-1.00;106942;1251;1002440;-70
2024/02/18 07:58:38;;;;;;;;;;;;;;;-128.00;-1.00;-1.00;106895;1251;1002776;-69
2024/02/18 08:01:05;;;;;;;;;;;;;;;-128.00;-1.00;-1.00;106643;1252;1002234;-69
2024/02/18 08:03:33;;;;;;;;;;;;;;;-128.00;-1.00;-1.00;106819;1253;1002241;-69
2024/02/18 08:06:00;;;;;;;;;;;;;;;-128.00;-1.00;-1.00;106874;1253;1002309;-70
2024/02/18 08:08:28;;;;;;;;;;;;;;;-128.00;-1.00;-1.00;106866;1252;1002610;-70
2024/02/18 08:10:55;;;;;;;;;;;;;;;-128.00;-1.00;-1.00;106835;1252;1002123;-70
2024/02/18 08:13:23;;;;;;;;;;;;;;;-128.00;-1.00;-1.00;106940;1252;1002887;-69
2024/02/18 08:15:50;;;;;;;;;;;;;;;-128.00;-1.00;-1.00;106813;1252;1002172;-70
2024/02/18 08:18:18;;;;;;;;;;;;;;;-128.00;-1.00;-1.00;106840;1252;1002612;-69
2024/02/18 08:20:45;;;;;;;;;;;;;;;-128.00;-1.00;-1.00;106859;1253;1002387;-69
2024/02/18 08:23:13;;;;;;;;;;;;;;;-128.00;-1.00;-1.00;106538;1254;1002423;-70
2024/02/18 08:25:40;;;;;;;;;;;;;;;-128.00;-1.00;-1.00;106878;1252;1002590;-69
2024/02/18 08:28:08;;;;;;;;;;;;;;;-128.00;-1.00;-1.00;106817;1257;1002275;-69
2024/02/18 08:30:36;;;;;;;;;;;;;;;-128.00;-1.00;-1.00;106805;1254;1002081;-69
2024/02/18 08:33:03;;;;;;;;;;;;;;;-128.00;-1.00;-1.00;106664;1252;1002695;-69
2024/02/18 08:35:31;;;;;;;;;;;;;;;-128.00;-1.00;-1.00;106378;1254;1002253;-69
2024/02/18 08:37:58;;;;;;;;;;;;;;;-128.00;-1.00;-1.00;106630;1254;1002641;-70
2024/02/18 08:40:26;;;;;;;;;;;;;;;-128.00;-1.00;-1.00;106664;1254;1002635;-69
2024/02/18 08:42:54;;;;;;;;;;;;;;;-128.00;-1.00;-1.00;106589;1256;1002624;-68
2024/02/18 08:45:21;;;;;;;;;;;;;;;-128.00;-1.00;-1.00;106650;1254;1002225;-69
2024/02/18 08:47:49;;;;;;;;;;;;;;;-128.00;-1.00;-1.00;106396;1254;1002581;-69
2024/02/18 08:50:16;;;;;;;;;;;;;;;-128.00;-1.00;-1.00;106523;1254;1002395;-69
2024/02/18 08:52:44;;;;;;;;;;;;;;;-128.00;-1.00;-1.00;106626;1254;1002248;-69
2024/02/18 08:55:11;;;;;;;;;;;;;;;-128.00;-1.00;-1.00;106576;1256;1002390;-68
2024/02/18 08:57:39;;;;;;;;;;;;;;;-128.00;-1.00;-1.00;106450;1256;1002898;-68
2024/02/18 09:00:07;;;;;;;;;;;;;;;-128.00;-1.00;-1.00;106543;1254;1002085;-68
2024/02/18 09:02:34;;;;;;;;;;;;;;;-128.00;-1.00;-1.00;106637;1254;1002547;-68
2024/02/18 09:05:02;;;;;;;;;;;;;;;-128.00;-1.00;-1.00;106609;1254;1002742;-69
2024/02/18 09:07:31;;;;;;;;;;;;;;;-128.00;-1.00;-1.00;106733;1254;1002294;-69
2024/02/18 09:09:58;;;;;;;;;;;;;;;-128.00;-1.00;-1.00;106663;1253;1013407;-68
2024/02/18 09:12:27;;;;;;;;;;;;;;;-128.00;-1.00;-1.00;106456;1257;1002390;-69
2024/02/18 09:14:56;;;;;;;;;;;;;;;-128.00;-1.00;-1.00;106402;1257;1010569;-69
2024/02/18 09:17:23;;;;;;;;;;;;;;;-128.00;-1.00;-1.00;106429;1257;1013360;-67
2024/02/18 09:19:50;;;;;;;;;;;;;;;-128.00;-1.00;-1.00;106364;1257;1003118;-70
2024/02/18 09:22:18;;;;;;;;;;;;;;;-128.00;-1.00;-1.00;106431;1257;1002417;-71
2024/02/18 09:24:46;;;;;;;;;;;;;;;-128.00;-1.00;-1.00;106401;1257;1002655;-68
2024/02/18 09:27:13;;;;;;;;;;;;;;;-128.00;-1.00;-1.00;106410;1257;1002519;-69
2024/02/18 09:29:41;;;;;;;;;;;;;;;-128.00;-1.00;-1.00;106405;1258;1002877;-69
2024/02/18 09:32:08;;;;;;;;;;;;;;;-128.00;-1.00;-1.00;106419;1257;1002415;-69
2024/02/18 09:34:37;;;;;;;;;;;;;;;-128.00;-1.00;-1.00;106436;1257;1003123;-69
2024/02/18 09:37:05;;;;;;;;;;;;;;;-128.00;-1.00;-1.00;106364;1258;1010152;-69
2024/02/18 09:39:32;;;;;;;;;;;;;;;-128.00;-1.00;-1.00;106424;1257;1002452;-69
2024/02/18 09:42:00;;;;;;;;;;;;;;;-128.00;-1.00;-1.00;106338;1259;1002122;-69
2024/02/18 09:44:28;;;;;;;;;;;;;;;-128.00;-1.00;-1.00;106655;1253;1002416;-69
2024/02/18 09:46:55;;;;;;;;;;;;;;;-128.00;-1.00;-1.00;106864;1252;1002371;-69
2024/02/18 09:49:23;;;;;;;;;;;;;;;-128.00;-1.00;-1.00;106870;1253;1002425;-69
2024/02/18 09:51:53;;;;;;;;;;;;;;;-128.00;-1.00;-1.00;106829;1254;1011266;-69
2024/02/18 09:54:21;;;;;;;;;;;;;;;-128.00;-1.00;-1.00;106918;1251;1012618;-69
2024/02/18 09:56:49;;;;;;;;;;;;;;;-128.00;-1.00;-1.00;106850;1251;1012414;-69
2024/02/18 09:59:17;;;;;;;;;;;;;;;-128.00;-1.00;-1.00;106933;1251;1002524;-69
2024/02/18 10:01:45;;;;;;;;;;;;;;;-128.00;-1.00;-1.00;106912;1253;1010557;-69
2024/02/18 10:04:12;;;;;;;;;;;;;;;-128.00;-1.00;-1.00;106754;1251;1002945;-69
2024/02/18 10:06:40;;;;;;;;;;;;;;;-128.00;-1.00;-1.00;106872;1251;1002015;-70
2024/02/18 10:09:08;;;;;;;;;;;;;;;-128.00;-1.00;-1.00;106863;1251;1002471;-69
2024/02/18 10:11:35;;;;;;;;;;;;;;;-128.00;-1.00;-1.00;106978;1251;1002250;-69
2024/02/18 10:14:05;;;;;;;;;;;;;;;-128.00;-1.00;-1.00;106895;1252;1002470;-70
2024/02/18 10:16:33;;;;;;;;;;;;;;;-128.00;-1.00;-1.00;106679;1251;1010816;-70
2024/02/18 10:19:01;;;;;;;;;;;;;;;-128.00;-1.00;-1.00;106867;1253;1002443;-69
2024/02/18 10:21:29;;;;;;;;;;;;;;;-128.00;-1.00;-1.00;106876;1253;1002951;-69
2024/02/18 10:23:56;;;;;;;;;;;;;;;-128.00;-1.00;-1.00;106855;1252;1002384;-69
2024/02/18 10:26:24;;;;;;;;;;;;;;;-128.00;-1.00;-1.00;106624;1254;1002476;-70
2024/02/18 10:28:52;;;;;;;;;;;;;;;-128.00;-1.00;-1.00;106716;1252;1002476;-70
2024/02/18 10:31:19;;;;;;;;;;;;;;;-128.00;-1.00;-1.00;106955;1252;1014130;-69
2024/02/18 10:33:47;;;;;;;;;;;;;;;-128.00;-1.00;-1.00;106918;1252;1002852;-69
2024/02/18 10:36:15;;;;;;;;;;;;;;;-128.00;-1.00;-1.00;106888;1252;1002696;-69
2024/02/18 10:38:43;;;;;;;;;;;;;;;-128.00;-1.00;-1.00;106970;1252;1002183;-70
2024/02/18 10:41:17;;;;;;;;;;;;;;;-128.00;-1.00;-1.00;106927;1252;1002311;-70
2024/02/18 10:43:52;;;;;;;;;;;;;;;-128.00;-1.00;-1.00;106964;1253;1013325;-69
2024/02/18 10:46:20;;;;;;;;;;;;;;;-128.00;-1.00;-1.00;106904;1253;1013093;-69
2024/02/18 10:48:49;;;;;;;;;;;;;;;-128.00;-1.00;-1.00;106937;1252;1012912;-69
2024/02/18 10:51:17;;;;;;;;;;;;;;;-128.00;-1.00;-1.00;106920;1253;1010095;-69
2024/02/18 10:53:46;;;;;;;;;;;;;;;-128.00;-1.00;-1.00;106794;1254;1002032;-69
2024/02/18 10:56:17;;;;;;;;;;;;;;;-128.00;-1.00;-1.00;106920;1252;1013127;-70
2024/02/18 10:59:07;;;;;;;;;;;;;;;-128.00;-1.00;-1.00;106755;1254;1012789;-70
2024/02/18 11:01:37;;;;;;;;;;;;;;;-128.00;-1.00;-1.00;106930;1252;1012461;-70
2024/02/18 11:04:07;;;;;;;;;;;;;;;-128.00;-1.00;-1.00;106762;1254;1009942;-70
2024/02/18 11:06:35;;;;;;;;;;;;;;;-128.00;-1.00;-1.00;106731;1254;1010173;-70
2024/02/18 11:09:03;;;;;;;;;;;;;;;-128.00;-1.00;-1.00;106839;1252;1001999;-68
2024/02/18 11:11:31;;;;;;;;;;;;;;;-128.00;-1.00;-1.00;106797;1253;1002414;-69
2024/02/18 11:13:59;;;;;;;;;;;;;;;-128.00;-1.00;-1.00;106872;1253;1002469;-70
2024/02/18 11:16:26;;;;;;;;;;;;;;;-128.00;-1.00;-1.00;106949;1252;1002794;-69
2024/02/18 11:18:55;;;;;;;;;;;;;;;-128.00;-1.00;-1.00;106416;1257;1010532;-69
2024/02/18 11:21:23;;;;;;;;;;;;;;;-128.00;-1.00;-1.00;106603;1256;1002471;-69
2024/02/18 11:23:53;;;;;;;;;;;;;;;-128.00;-1.00;-1.00;106447;1258;1002639;-70
2024/02/18 11:26:21;;;;;;;;;;;;;;;-128.00;-1.00;-1.00;106577;1255;1012014;-69
2024/02/18 11:28:48;;;;;;;;;;;;;;;-128.00;-1.00;-1.00;106558;1256;1002910;-69
2024/02/18 11:31:25;;;;;;;;;;;;;;;-128.00;-1.00;-1.00;106563;1256;1002608;-69
2024/02/18 11:33:53;;;;;;;;;;;;;;;-128.00;-1.00;-1.00;106614;1256;1014075;-69
2024/02/18 11:36:22;;;;;;;;;;;;;;;-128.00;-1.00;-1.00;106563;1256;1001908;-69
2024/02/18 11:38:53;;;;;;;;;;;;;;;-128.00;-1.00;-1.00;106572;1255;1012409;-70
2024/02/18 11:41:24;;;;;;;;;;;;;;;-128.00;-1.00;-1.00;106580;1255;1010449;-69
2024/02/18 11:43:52;;;;;;;;;;;;;;;-128.00;-1.00;-1.00;106577;1256;1011003;-69
2024/02/18 11:46:20;;;;;;;;;;;;;;;-128.00;-1.00;-1.00;106615;1256;1002275;-70
2024/02/18 11:48:48;;;;;;;;;;;;;;;-128.00;-1.00;-1.00;106397;1257;1013471;-70
2024/02/18 11:51:16;;;;;;;;;;;;;;;-128.00;-1.00;-1.00;106882;1253;1002596;-69
2024/02/18 11:53:43;;;;;;;;;;;;;;;-128.00;-1.00;-1.00;106936;1254;1002290;-69
2024/02/18 11:56:13;;;;;;;;;;;;;;;-128.00;-1.00;-1.00;106926;1253;1002411;-69
2024/02/18 11:58:41;;;;;;;;;;;;;;;-128.00;-1.00;-1.00;106901;1254;1013516;-70
2024/02/18 12:01:08;;;;;;;;;;;;;;;-128.00;-1.00;-1.00;106835;1254;1002208;-70
2024/02/18 12:03:36;;;;;;;;;;;;;;;-128.00;-1.00;-1.00;106385;1253;1002590;-70
2024/02/18 12:06:03;;;;;;;;;;;;;;;-128.00;-1.00;-1.00;106874;1253;1002490;-69
2024/02/18 12:08:31;;;;;;;;;;;;;;;-128.00;-1.00;-1.00;106632;1256;1002353;-69
2024/02/18 12:11:00;;;;;;;;;;;;;;;-128.00;-1.00;-1.00;106880;1252;1002800;-70
2024/02/18 12:13:27;;;;;;;;;;;;;;;-128.00;-1.00;-1.00;106915;1254;1011767;-70
2024/02/18 12:16:02;;;;;;;;;;;;;;;-128.00;-1.00;-1.00;106907;1252;1002610;-70
2024/02/18 12:18:29;;;;;;;;;;;;;;;-128.00;-1.00;-1.00;106906;1252;1010206;-69
2024/02/18 12:20:57;;;;;;;;;;;;;;;-128.00;-1.00;-1.00;106919;1253;1001873;-69
2024/02/18 12:23:25;;;;;;;;;;;;;;;-128.00;-1.00;-1.00;106844;1253;1004711;-69
2024/02/18 12:25:53;;;;;;;;;;;;;;;-128.00;-1.00;-1.00;106941;1253;1002401;-69
2024/02/18 12:28:21;;;;;;;;;;;;;;;-128.00;-1.00;-1.00;106863;1253;1012938;-69
2024/02/18 12:30:50;;;;;;;;;;;;;;;-128.00;-1.00;-1.00;106920;1254;1002563;-69